South Gate, California
Current Conditions -  °F | °C
As of 6:47 AM on Friday 28 Nov 2014 (Local Time) from KCQT Reporting Station
Clear Clear  
Wind Chill: 54°   Ceiling: Unl
Heat Index: 54°   Visibility: 10mi
Dew Point: 33°   Wind: 0mph
Humidity: 45%   Direction: NA
Pressure: 29.98"   Gusts: NA
Location:  33.96°N, 118.2°W
Report Text: KCQT 281447Z AUTO 00000KT 10SM CLR 12/01 A2998 RMK AO2 SLP151 T01220006 53001
Loading
Personal Weather Stations






























Interactive Weather Map New forecast layout! Learn more

10-Day Weather Forecast

Advertisements
Track Severe Weather on mobile